createdAt,value
2018-01-23T00:00:48.575Z,101343.88
2018-01-23T00:03:16.892Z,101351.04
2018-01-23T00:05:45.260Z,101365.10
2018-01-23T00:08:13.602Z,101370.88
2018-01-23T00:10:41.981Z,101357.39
2018-01-23T00:13:10.345Z,101369.83
2018-01-23T00:15:38.684Z,101366.58
2018-01-23T00:18:07.019Z,101370.70
2018-01-23T00:20:35.728Z,101363.63
2018-01-23T00:23:04.793Z,101363.63
2018-01-23T00:25:33.103Z,101356.92
2018-01-23T00:28:01.626Z,101361.16
2018-01-23T00:30:29.925Z,101366.77
2018-01-23T00:32:58.238Z,101368.84
2018-01-23T00:35:26.558Z,101363.97
2018-01-23T00:37:54.848Z,101366.03
2018-01-23T00:40:23.208Z,101369.00
2018-01-23T00:42:51.794Z,101371.25
2018-01-23T00:45:20.125Z,101377.53
2018-01-23T00:47:48.457Z,101385.16
2018-01-23T00:50:16.840Z,101383.24
2018-01-23T00:52:45.147Z,101387.53
2018-01-23T00:55:13.449Z,101394.91
2018-01-23T00:57:41.812Z,101392.91
2018-01-23T01:00:10.113Z,101399.39
2018-01-23T01:02:39.183Z,101411.28
2018-01-23T01:05:07.914Z,101412.84
2018-01-23T01:07:36.228Z,101420.58
2018-01-23T01:10:04.557Z,101421.56
2018-01-23T01:12:33.668Z,101419.37
2018-01-23T01:15:01.987Z,101429.74
2018-01-23T01:17:31.083Z,101427.69
2018-01-23T01:19:59.431Z,101439.05
2018-01-23T01:22:27.762Z,101436.36
2018-01-23T01:24:56.054Z,101431.11
2018-01-23T01:27:24.949Z,101446.31
2018-01-23T01:29:53.255Z,101457.74
2018-01-23T01:32:21.626Z,101461.34
2018-01-23T01:34:49.957Z,101470.61
2018-01-23T01:37:18.688Z,101465.69
2018-01-23T01:39:47.063Z,101468.20
2018-01-23T01:42:15.416Z,101474.99
2018-01-23T01:44:43.760Z,101480.98
2018-01-23T01:47:12.064Z,101476.47
2018-01-23T01:49:40.877Z,101482.05
2018-01-23T01:52:09.176Z,101477.52
2018-01-23T01:54:37.507Z,101478.57
2018-01-23T01:57:05.840Z,101478.52
2018-01-23T01:59:34.156Z,101484.87
2018-01-23T02:02:02.452Z,101486.67
2018-01-23T02:04:30.789Z,101485.77
2018-01-23T02:06:59.151Z,101487.36
2018-01-23T02:09:27.450Z,101495.36
2018-01-23T02:11:56.185Z,101497.48
2018-01-23T02:16:59.793Z,101497.87
2018-01-23T02:19:28.109Z,101513.17
2018-01-23T02:21:56.462Z,101506.14
2018-01-23T02:24:24.826Z,101505.36
2018-01-23T02:26:53.158Z,101508.93
2018-01-23T02:29:21.476Z,101505.52
2018-01-23T02:32:00.350Z,101511.06
2018-01-23T02:34:28.716Z,101502.06
2018-01-23T02:36:57.019Z,101504.14
2018-01-23T02:39:25.338Z,101506.59
2018-01-23T02:41:53.631Z,101516.70
2018-01-23T02:44:22.938Z,101511.72
2018-01-23T02:46:51.303Z,101513.38
2018-01-23T02:49:19.621Z,101516.22
2018-01-23T02:51:47.936Z,101520.22
2018-01-23T02:54:16.716Z,101524.44
2018-01-23T02:56:45.043Z,101519.06
2018-01-23T02:59:14.151Z,101522.86
2018-01-23T03:01:43.252Z,101531.10
2018-01-23T03:04:11.617Z,101533.48
2018-01-23T03:06:39.951Z,101535.60
2018-01-23T03:09:08.321Z,101537.91
2018-01-23T03:11:37.416Z,101534.53
2018-01-23T03:14:06.481Z,101543.16
2018-01-23T03:16:35.850Z,101552.98
2018-01-23T03:19:04.166Z,101551.70
2018-01-23T03:21:32.510Z,101550.52
2018-01-23T03:24:00.940Z,101553.80
2018-01-23T03:26:29.243Z,101560.33
2018-01-23T03:28:57.574Z,101564.75
2018-01-23T03:31:25.936Z,101564.18
2018-01-23T03:33:54.302Z,101566.13
2018-01-23T03:36:22.656Z,101567.05
2018-01-23T03:38:52.041Z,101570.11
2018-01-23T03:41:20.373Z,101571.17
2018-01-23T03:43:48.697Z,101579.48
2018-01-23T03:46:17.062Z,101576.91
2018-01-23T03:48:45.368Z,101582.77
2018-01-23T03:51:13.707Z,101591.73
2018-01-23T03:53:42.052Z,101589.30
2018-01-23T03:56:10.365Z,101593.80
2018-01-23T03:58:38.678Z,101599.95
2018-01-23T04:01:07.145Z,101602.52
2018-01-23T04:03:35.431Z,101608.70
2018-01-23T04:06:03.777Z,101612.03
2018-01-23T04:08:32.128Z,101607.47
2018-01-23T04:11:00.472Z,101610.74
2018-01-23T04:13:28.787Z,101614.61
2018-01-23T04:15:57.114Z,101615.68
2018-01-23T04:18:25.437Z,101625.94
2018-01-23T04:20:53.756Z,101626.69
2018-01-23T04:23:22.507Z,101625.23
2018-01-23T04:25:50.856Z,101625.77
2018-01-23T04:28:19.186Z,101624.15
2018-01-23T04:30:47.543Z,101635.22
2018-01-23T04:33:15.853Z,101639.47
2018-01-23T04:35:44.139Z,101642.58
2018-01-23T04:38:12.461Z,101653.70
2018-01-23T04:40:40.776Z,101649.30
2018-01-23T04:43:09.076Z,101649.95
2018-01-23T04:45:37.756Z,101648.60
2018-01-23T04:48:06.054Z,101651.20
2018-01-23T04:50:34.392Z,101652.91
2018-01-23T04:53:02.772Z,101661.24
2018-01-23T04:55:31.037Z,101655.27
2018-01-23T04:57:59.356Z,101660.21
2018-01-23T05:00:28.215Z,101667.08
2018-01-23T05:02:56.512Z,101672.94
2018-01-23T05:05:24.851Z,101673.91
2018-01-23T05:07:53.400Z,101675.84
2018-01-23T05:10:22.472Z,101674.80
2018-01-23T05:12:50.851Z,101674.53
2018-01-23T05:15:19.206Z,101689.46
2018-01-23T05:17:47.524Z,101683.07
2018-01-23T05:20:16.662Z,101692.19
2018-01-23T05:22:44.982Z,101687.80
2018-01-23T05:25:13.281Z,101681.14
2018-01-23T05:27:41.593Z,101687.00
2018-01-23T05:30:09.987Z,101693.71
2018-01-23T05:32:38.304Z,101689.08
2018-01-23T05:35:06.636Z,101692.04
2018-01-23T05:37:34.980Z,101691.40
2018-01-23T05:40:04.040Z,101698.05
2018-01-23T05:42:32.381Z,101698.80
2018-01-23T05:45:00.721Z,101708.14
2018-01-23T05:47:29.027Z,101709.80
2018-01-23T05:49:57.317Z,101700.15
2018-01-23T05:52:26.075Z,101710.57
2018-01-23T05:54:55.135Z,101716.96
2018-01-23T05:57:24.208Z,101725.30
2018-01-23T05:59:52.525Z,101729.80
2018-01-23T06:02:20.831Z,101731.52
2018-01-23T06:04:49.126Z,101732.12
2018-01-23T06:07:17.467Z,101735.92
2018-01-23T06:09:45.793Z,101736.66
2018-01-23T06:12:14.096Z,101735.64
2018-01-23T06:14:42.715Z,101730.29
2018-01-23T06:17:11.794Z,101733.41
2018-01-23T06:19:40.162Z,101736.84
2018-01-23T06:22:08.532Z,101738.81
2018-01-23T06:24:36.891Z,101739.25
2018-01-23T06:27:05.194Z,101748.92
2018-01-23T06:29:33.547Z,101749.41
2018-01-23T06:32:01.868Z,101751.55
2018-01-23T06:34:30.189Z,101753.44
2018-01-23T06:36:58.696Z,101754.08
2018-01-23T06:39:26.990Z,101757.52
2018-01-23T06:41:55.283Z,101763.32
2018-01-23T06:44:23.596Z,101768.64
2018-01-23T06:46:51.904Z,101772.07
2018-01-23T06:49:20.241Z,101765.48
2018-01-23T06:51:48.606Z,101771.41
2018-01-23T06:54:17.676Z,101769.66
2018-01-23T06:56:45.969Z,101781.81
2018-01-23T06:59:14.553Z,101774.28
2018-01-23T07:01:42.883Z,101786.44
2018-01-23T07:04:11.184Z,101788.31
2018-01-23T07:06:39.525Z,101791.80
2018-01-23T07:09:07.893Z,101795.89
2018-01-23T07:11:36.180Z,101803.77
2018-01-23T07:14:04.552Z,101802.00
2018-01-23T07:16:32.878Z,101810.45
2018-01-23T07:19:01.198Z,101810.59
2018-01-23T07:21:30.699Z,101816.95
2018-01-23T07:23:59.796Z,101817.86
2018-01-23T07:26:28.132Z,101824.86
2018-01-23T07:28:56.479Z,101834.55
2018-01-23T07:31:24.800Z,101830.37
2018-01-23T07:33:53.099Z,101834.00
2018-01-23T07:36:21.483Z,101829.08
2018-01-23T07:38:50.570Z,101833.63
2018-01-23T07:41:18.912Z,101829.78
2018-01-23T07:43:47.478Z,101838.02
2018-01-23T07:46:15.832Z,101837.21
2018-01-23T07:48:44.185Z,101835.52
2018-01-23T07:51:12.561Z,101838.81
2018-01-23T07:53:40.876Z,101847.61
2018-01-23T07:56:09.180Z,101844.06
2018-01-23T07:58:37.529Z,101852.14
2018-01-23T08:01:05.852Z,101864.06
2018-01-23T08:03:34.197Z,101857.76
2018-01-23T08:06:02.940Z,101861.28
2018-01-23T08:08:31.301Z,101868.09
2018-01-23T08:10:59.628Z,101868.52
2018-01-23T08:13:27.992Z,101866.99
2018-01-23T08:15:56.320Z,101876.60
2018-01-23T08:18:24.649Z,101875.39
2018-01-23T08:20:53.741Z,101875.31
2018-01-23T08:23:22.805Z,101874.55
2018-01-23T08:25:51.108Z,101879.02
2018-01-23T08:28:19.936Z,101882.05
2018-01-23T08:30:48.261Z,101886.45
2018-01-23T08:33:16.575Z,101891.86
2018-01-23T08:35:44.943Z,101895.19
2018-01-23T08:38:13.266Z,101887.89
2018-01-23T08:40:41.569Z,101893.95
2018-01-23T08:43:09.916Z,101892.55
2018-01-23T08:45:38.217Z,101887.86
2018-01-23T08:48:06.531Z,101894.25
2018-01-23T08:50:35.227Z,101892.62
2018-01-23T08:53:04.327Z,101899.88
2018-01-23T08:55:33.419Z,101893.98
2018-01-23T08:58:01.747Z,101903.47
2018-01-23T09:00:30.091Z,101902.28
2018-01-23T09:02:58.494Z,101906.55
2018-01-23T09:05:26.818Z,101899.86
2018-01-23T09:07:55.181Z,101897.91
2018-01-23T09:10:23.508Z,101908.86
2018-01-23T09:12:52.147Z,101908.16
2018-01-23T09:15:20.496Z,101908.33
2018-01-23T09:17:48.814Z,101907.38
2018-01-23T09:20:17.173Z,101909.39
2018-01-23T09:22:45.508Z,101907.33
2018-01-23T09:25:13.817Z,101906.84
2018-01-23T09:27:42.159Z,101908.80
2018-01-23T09:30:10.495Z,101908.69
2018-01-23T09:32:38.809Z,101907.03
2018-01-23T09:35:07.478Z,101906.89
2018-01-23T09:37:35.804Z,101900.40
2018-01-23T09:40:04.109Z,101911.94
2018-01-23T09:42:32.712Z,101915.80
2018-01-23T09:45:01.065Z,101912.86
2018-01-23T09:47:29.361Z,101914.09
2018-01-23T09:49:57.715Z,101919.23
2018-01-23T09:52:26.075Z,101925.50
2018-01-23T09:54:54.395Z,101922.92
2018-01-23T09:57:22.863Z,101936.84
2018-01-23T09:59:51.184Z,101933.17
2018-01-23T10:02:20.285Z,101930.04
2018-01-23T10:04:48.651Z,101937.45
2018-01-23T10:07:17.044Z,101937.22
2018-01-23T10:09:46.135Z,101932.00
2018-01-23T10:12:15.264Z,101935.93
2018-01-23T10:14:43.580Z,101938.20
2018-01-23T10:17:11.916Z,101939.78
2018-01-23T10:19:41.623Z,101932.13
2018-01-23T10:22:09.953Z,101935.81
2018-01-23T10:24:38.300Z,101934.64
2018-01-23T10:27:06.635Z,101932.80
2018-01-23T10:29:34.977Z,101937.89
2018-01-23T10:32:03.287Z,101936.48
2018-01-23T10:34:32.368Z,101928.50
2018-01-23T10:37:00.723Z,101934.80
2018-01-23T10:39:29.030Z,101934.45
2018-01-23T10:41:57.588Z,101943.14
2018-01-23T10:44:25.937Z,101939.17
2018-01-23T10:46:54.267Z,101937.75
2018-01-23T10:49:22.641Z,101934.13
2018-01-23T10:51:50.955Z,101939.14
2018-01-23T10:54:19.299Z,101939.47
2018-01-23T10:56:47.665Z,101938.81
2018-01-23T10:59:15.984Z,101935.44
2018-01-23T11:01:44.334Z,101931.33
2018-01-23T11:04:12.970Z,101926.17
2018-01-23T11:06:41.299Z,101927.02
2018-01-23T11:09:09.643Z,101927.77
2018-01-23T11:11:37.992Z,101923.59
2018-01-23T11:14:06.365Z,101918.18
2018-01-23T11:16:34.695Z,101919.12
2018-01-23T11:19:03.138Z,101921.50
2018-01-23T11:21:31.471Z,101911.19
2018-01-23T11:23:59.995Z,101914.75
2018-01-23T11:26:28.728Z,101910.58
2018-01-23T11:28:57.043Z,101913.70
2018-01-23T11:31:26.145Z,101915.35
2018-01-23T11:33:54.539Z,101927.28
2018-01-23T11:36:22.871Z,101917.13
2018-01-23T11:38:51.183Z,101917.19
2018-01-23T11:41:19.525Z,101913.19
2018-01-23T11:43:47.876Z,101902.13
2018-01-23T11:46:16.211Z,101910.72
2018-01-23T11:48:45.096Z,101902.98
2018-01-23T11:51:13.448Z,101906.49
2018-01-23T11:53:41.752Z,101909.78
2018-01-23T11:56:10.868Z,101905.15
2018-01-23T11:58:39.192Z,101899.08
2018-01-23T12:01:07.530Z,101900.59
2018-01-23T12:03:36.504Z,101897.87
2018-01-23T12:06:05.611Z,101897.05
2018-01-23T12:08:34.694Z,101894.73
2018-01-23T12:11:03.971Z,101900.72
2018-01-23T12:13:32.307Z,101896.30
2018-01-23T12:16:00.643Z,101887.31
2018-01-23T12:18:29.000Z,101897.64
2018-01-23T12:20:57.378Z,101886.97
2018-01-23T12:23:25.709Z,101886.53
2018-01-23T12:25:54.057Z,101882.72
2018-01-23T12:28:23.132Z,101878.91
2018-01-23T12:30:51.430Z,101869.41
2018-01-23T12:33:20.432Z,101873.52
2018-01-23T12:35:49.551Z,101878.69
2018-01-23T12:38:17.916Z,101866.00
2018-01-23T12:40:47.058Z,101866.26
2018-01-23T12:43:15.518Z,101862.59
2018-01-23T12:45:43.845Z,101861.96
2018-01-23T12:48:12.204Z,101861.94
2018-01-23T12:50:40.593Z,101871.38
2018-01-23T12:53:08.906Z,101878.65
2018-01-23T12:55:38.442Z,101878.74
2018-01-23T12:58:06.771Z,101872.89
2018-01-23T13:00:35.106Z,101873.05
2018-01-23T13:03:03.427Z,101877.02
2018-01-23T13:05:31.739Z,101869.80
2018-01-23T13:08:00.053Z,101867.56
2018-01-23T13:10:28.405Z,101868.72
2018-01-23T13:12:56.709Z,101860.45
2018-01-23T13:15:25.041Z,101864.20
2018-01-23T13:17:53.688Z,101862.02
2018-01-23T13:20:21.992Z,101865.39
2018-01-23T13:22:50.438Z,101856.13
2018-01-23T13:25:18.773Z,101849.31
2018-01-23T13:27:47.106Z,101857.28
2018-01-23T13:30:15.420Z,101868.27
2018-01-23T13:32:44.519Z,101851.97
2018-01-23T13:35:13.601Z,101858.56
2018-01-23T13:37:42.705Z,101851.06
2018-01-23T13:40:12.077Z,101856.81
2018-01-23T13:42:40.430Z,101856.31
2018-01-23T13:45:08.744Z,101848.47
2018-01-23T13:47:37.081Z,101849.75
2018-01-23T13:50:05.414Z,101852.05
2018-01-23T13:52:33.738Z,101845.61
2018-01-23T13:55:02.092Z,101846.34
2018-01-23T13:57:31.214Z,101845.25
2018-01-23T13:59:59.566Z,101849.02
2018-01-23T14:02:28.640Z,101844.30
2018-01-23T14:04:56.967Z,101836.44
2018-01-23T14:07:25.312Z,101833.80
2018-01-23T14:09:54.452Z,101832.34
2018-01-23T14:12:22.807Z,101828.55
2018-01-23T14:14:51.142Z,101829.38
2018-01-23T14:17:19.571Z,101818.30
2018-01-23T14:19:47.897Z,101814.80
2018-01-23T14:22:16.215Z,101815.03
2018-01-23T14:24:44.969Z,101821.00
2018-01-23T14:27:13.341Z,101813.52
2018-01-23T14:29:41.706Z,101810.45
2018-01-23T14:32:10.074Z,101819.29
2018-01-23T14:34:38.404Z,101820.84
2018-01-23T14:37:07.460Z,101801.78
2018-01-23T14:39:35.805Z,101811.54
2018-01-23T14:42:04.125Z,101805.20
2018-01-23T14:44:32.444Z,101812.05
2018-01-23T14:47:01.057Z,101803.13
2018-01-23T14:49:29.393Z,101798.15
2018-01-23T14:51:59.412Z,101797.22
2018-01-23T14:54:28.553Z,101798.38
2018-01-23T14:56:56.912Z,101794.55
2018-01-23T14:59:25.250Z,101799.26
2018-01-23T15:01:54.387Z,101795.87
2018-01-23T15:04:22.776Z,101801.31
2018-01-23T15:06:51.076Z,101794.19
2018-01-23T15:09:19.887Z,101781.20
2018-01-23T15:11:48.224Z,101782.44
2018-01-23T15:14:16.528Z,101787.39
2018-01-23T15:16:44.902Z,101778.27
2018-01-23T15:19:13.248Z,101781.56
2018-01-23T15:21:41.562Z,101772.39
2018-01-23T15:24:09.905Z,101769.72
2018-01-23T15:26:38.252Z,101775.48
2018-01-23T15:29:06.562Z,101773.33
2018-01-23T15:31:35.418Z,101775.78
2018-01-23T15:34:03.732Z,101773.22
2018-01-23T15:36:32.035Z,101762.47
2018-01-23T15:39:00.417Z,101780.47
2018-01-23T15:41:28.748Z,101780.28
2018-01-23T15:43:57.068Z,101783.69
2018-01-23T15:46:25.457Z,101773.34
2018-01-23T15:48:53.772Z,101770.44
2018-01-23T15:51:22.111Z,101775.06
2018-01-23T15:53:50.913Z,101773.63
2018-01-23T15:56:19.217Z,101769.64
2018-01-23T15:58:47.566Z,101772.98
2018-01-23T16:01:15.899Z,101766.70
2018-01-23T16:03:44.284Z,101760.73
2018-01-23T16:06:12.610Z,101765.16
2018-01-23T16:08:40.973Z,101763.02
2018-01-23T16:11:09.370Z,101753.62
2018-01-23T16:13:37.764Z,101752.14
2018-01-23T16:16:07.262Z,101744.56
2018-01-23T16:18:35.601Z,101748.97
2018-01-23T16:21:03.943Z,101751.45
2018-01-23T16:23:33.099Z,101762.20
2018-01-23T16:26:01.437Z,101756.96
2018-01-23T16:28:29.764Z,101750.72
2018-01-23T16:30:58.149Z,101741.09
2018-01-23T16:33:26.502Z,101743.56
2018-01-23T16:35:54.853Z,101742.70
2018-01-23T16:38:23.260Z,101732.72
2018-01-23T16:40:51.664Z,101735.72
2018-01-23T16:43:20.014Z,101732.22
2018-01-23T16:45:48.376Z,101735.35
2018-01-23T16:48:16.745Z,101737.95
2018-01-23T16:50:45.095Z,101733.55
2018-01-23T16:53:13.540Z,101727.83
2018-01-23T16:55:42.693Z,101730.03
2018-01-23T16:58:11.781Z,101731.39
2018-01-23T17:00:41.280Z,101730.78
2018-01-23T17:03:10.340Z,101732.18
2018-01-23T17:05:38.645Z,101722.60
2018-01-23T17:08:07.750Z,101722.90
2018-01-23T17:10:36.850Z,101717.82
2018-01-23T17:13:05.928Z,101715.12
2018-01-23T17:15:34.259Z,101701.36
2018-01-23T17:18:02.572Z,101695.83
2018-01-23T17:20:30.858Z,101695.14
2018-01-23T17:22:59.529Z,101685.09
2018-01-23T17:25:27.831Z,101680.08
2018-01-23T17:27:56.155Z,101688.87
2018-01-23T17:30:24.516Z,101687.11
2018-01-23T17:32:52.833Z,101685.50
2018-01-23T17:35:21.136Z,101682.52
2018-01-23T17:37:49.500Z,101676.22
2018-01-23T17:40:17.809Z,101676.19
2018-01-23T17:42:46.900Z,101681.53
2018-01-23T17:45:16.102Z,101668.30
2018-01-23T17:47:45.406Z,101664.63
2018-01-23T17:50:14.504Z,101664.95
2018-01-23T17:52:43.605Z,101652.73
2018-01-23T17:55:12.745Z,101655.93
2018-01-23T17:57:41.055Z,101649.41
2018-01-23T18:00:09.390Z,101652.56
2018-01-23T18:02:37.685Z,101647.16
2018-01-23T18:05:06.025Z,101648.56
2018-01-23T18:07:34.739Z,101640.41
2018-01-23T18:10:03.123Z,101641.78
2018-01-23T18:12:31.432Z,101643.37
2018-01-23T18:14:59.809Z,101642.69
2018-01-23T18:17:28.247Z,101644.83
2018-01-23T18:19:56.628Z,101631.17
2018-01-23T18:22:25.001Z,101631.34
2018-01-23T18:24:53.427Z,101627.91
2018-01-23T18:27:21.807Z,101616.03
2018-01-23T18:29:50.433Z,101617.26
2018-01-23T18:32:18.755Z,101615.53
2018-01-23T18:34:47.110Z,101613.41
2018-01-23T18:37:15.452Z,101611.60
2018-01-23T18:39:43.779Z,101612.20
2018-01-23T18:42:12.084Z,101618.38
2018-01-23T18:44:41.221Z,101606.34
2018-01-23T18:47:09.567Z,101610.40
2018-01-23T18:49:37.874Z,101606.02
2018-01-23T18:52:06.505Z,101605.93
2018-01-23T18:54:34.820Z,101606.87
2018-01-23T18:57:03.156Z,101610.36
2018-01-23T18:59:31.499Z,101606.20
2018-01-23T19:01:59.860Z,101602.22
2018-01-23T19:04:28.206Z,101604.30
2018-01-23T19:06:56.605Z,101599.41
2018-01-23T19:09:24.974Z,101588.73
2018-01-23T19:11:53.361Z,101590.64
2018-01-23T19:14:21.900Z,101588.55
2018-01-23T19:16:50.254Z,101572.59
2018-01-23T19:19:19.324Z,101562.52
2018-01-23T19:21:47.704Z,101563.69
2018-01-23T19:24:16.069Z,101552.45
2018-01-23T19:26:44.379Z,101566.30
2018-01-23T19:29:13.896Z,101553.75
2018-01-23T19:31:42.979Z,101555.30
2018-01-23T19:34:12.142Z,101552.28
2018-01-23T19:36:40.555Z,101549.67
2018-01-23T19:39:09.650Z,101549.58
2018-01-23T19:41:38.735Z,101542.80
2018-01-23T19:44:07.127Z,101543.74
2018-01-23T19:46:36.464Z,101539.05
2018-01-23T19:49:04.809Z,101536.48
2018-01-23T19:51:33.937Z,101542.67
2018-01-23T19:54:02.276Z,101538.77
2018-01-23T19:56:30.633Z,101532.23
2018-01-23T19:58:59.410Z,101532.42
2018-01-23T20:01:27.769Z,101521.97
2018-01-23T20:03:56.159Z,101512.20
2018-01-23T20:06:24.536Z,101520.25
2018-01-23T20:08:53.614Z,101519.99
2018-01-23T20:11:21.961Z,101523.61
2018-01-23T20:13:51.830Z,101517.98
2018-01-23T20:16:20.134Z,101511.16
2018-01-23T20:18:48.464Z,101513.41
2018-01-23T20:21:17.428Z,101523.50
2018-01-23T20:23:45.769Z,101511.36
2018-01-23T20:26:14.105Z,101514.41
2018-01-23T20:28:42.490Z,101501.06
2018-01-23T20:31:10.841Z,101503.83
2018-01-23T20:33:39.965Z,101511.55
2018-01-23T20:36:08.304Z,101504.56
2018-01-23T20:38:36.626Z,101493.91
2018-01-23T20:41:04.949Z,101490.48
2018-01-23T20:43:33.753Z,101489.99
2018-01-23T20:46:02.115Z,101488.16
2018-01-23T20:48:30.461Z,101480.84
2018-01-23T20:50:58.800Z,101484.66
2018-01-23T20:53:27.133Z,101481.47
2018-01-23T20:55:55.492Z,101482.05
2018-01-23T20:58:23.860Z,101482.38
2018-01-23T21:00:52.240Z,101472.09
2018-01-23T21:03:20.582Z,101485.77
2018-01-23T21:05:49.252Z,101485.36
2018-01-23T21:08:17.565Z,101489.95
2018-01-23T21:10:45.975Z,101476.73
2018-01-23T21:13:14.356Z,101485.45
2018-01-23T21:15:43.491Z,101469.21
2018-01-23T21:18:11.853Z,101471.49
2018-01-23T21:20:40.264Z,101457.95
2018-01-23T21:23:09.388Z,101465.50
2018-01-23T21:25:37.745Z,101466.16
2018-01-23T21:28:07.520Z,101453.53
2018-01-23T21:30:36.595Z,101474.14
2018-01-23T21:33:04.926Z,101480.58
2018-01-23T21:35:33.350Z,101472.39
2018-01-23T21:38:01.761Z,101459.94
2018-01-23T21:40:30.117Z,101479.80
2018-01-23T21:42:58.488Z,101481.28
2018-01-23T21:45:26.818Z,101466.16
2018-01-23T21:47:55.210Z,101460.90
2018-01-23T21:50:23.984Z,101460.44
2018-01-23T21:52:52.352Z,101449.45
2018-01-23T21:55:20.695Z,101460.74
2018-01-23T21:57:49.091Z,101451.16
2018-01-23T22:00:17.424Z,101465.58
2018-01-23T22:02:45.789Z,101453.45
2018-01-23T22:05:14.961Z,101452.08
2018-01-23T22:07:43.284Z,101438.84
2018-01-23T22:10:11.621Z,101447.67
2018-01-23T22:12:40.330Z,101459.84
2018-01-23T22:15:08.650Z,101436.22
2018-01-23T22:17:36.988Z,101434.78
2018-01-23T22:20:06.118Z,101427.48
2018-01-23T22:22:34.435Z,101426.87
2018-01-23T22:25:02.780Z,101417.27
2018-01-23T22:27:31.144Z,101419.52
2018-01-23T22:29:59.473Z,101414.11
2018-01-23T22:32:27.802Z,101422.13
2018-01-23T22:34:56.561Z,101409.30
2018-01-23T22:37:25.684Z,101414.31
2018-01-23T22:39:53.990Z,101406.13
2018-01-23T22:42:22.323Z,101403.43
2018-01-23T22:44:51.417Z,101397.23
2018-01-23T22:47:19.732Z,101382.63
2018-01-23T22:49:48.104Z,101386.14
2018-01-23T22:52:16.591Z,101377.88
2018-01-23T22:54:44.890Z,101384.40
2018-01-23T22:57:13.810Z,101395.08
2018-01-23T22:59:42.112Z,101378.27
2018-01-23T23:02:11.194Z,101385.92
2018-01-23T23:04:39.546Z,101393.23
2018-01-23T23:07:07.840Z,101376.73
2018-01-23T23:09:36.150Z,101373.91
2018-01-23T23:12:04.496Z,101368.84
2018-01-23T23:14:32.819Z,101376.63
2018-01-23T23:17:01.134Z,101371.78
2018-01-23T23:19:30.148Z,101379.41
2018-01-23T23:21:58.478Z,101380.28
2018-01-23T23:24:26.818Z,101376.33
2018-01-23T23:26:55.920Z,101363.92
2018-01-23T23:29:24.987Z,101363.84
2018-01-23T23:31:53.381Z,101375.64
2018-01-23T23:34:21.722Z,101348.06
2018-01-23T23:36:50.024Z,101340.36
2018-01-23T23:39:18.346Z,101341.45
2018-01-23T23:41:46.952Z,101349.78
2018-01-23T23:44:15.260Z,101349.20
2018-01-23T23:46:43.585Z,101347.22
2018-01-23T23:49:11.904Z,101348.68
2018-01-23T23:51:40.206Z,101354.36
2018-01-23T23:54:08.519Z,101350.68
2018-01-23T23:56:36.852Z,101345.31
2018-01-23T23:59:05.146Z,101356.39
